Time;durP1;ratioP1;P1;durP2;ratioP2;P2;SDS_P1;SDS_P2;PMS_P1;PMS_P2;Temp;Humidity;BMP_temperature;BMP_pressure;BME280_temperature;BME280_humidity;BME280_pressure;Samples;Min_cycle;Max_cycle;Signal;HPM_P1;HPM_P2
2022/02/11 00:07:37;;;;;;;;;;;8.20;99.90;;;;;;5013279;28;19975;-92
2022/02/11 00:10:04;;;;;;;;;;;8.20;99.90;;;;;;5011487;28;19909;-91
2022/02/11 00:12:30;;;;;;;;;;;8.20;99.90;;;;;;5011157;28;19992;-94
2022/02/11 00:15:42;;;;;;;;;;;8.20;99.90;;;;;;5015109;28;20011;-94
2022/02/11 00:17:44;;;;;;;;;;;8.20;99.90;;;;;;5014120;28;19961;-91
2022/02/11 00:20:10;;;;;;;;;;;8.10;99.90;;;;;;4995327;28;19921;-92
2022/02/11 00:22:35;;;;;;;;;;;8.10;99.90;;;;;;5007736;28;19909;-94
2022/02/11 00:25:01;;;;;;;;;;;8.10;99.90;;;;;;5010007;28;19996;-92
2022/02/11 00:28:02;;;;;;;;;;;8.10;99.90;;;;;;5008158;28;19916;-92
2022/02/11 00:35:45;;;;;;;;;;;8.10;99.90;;;;;;5012854;28;19964;-91
2022/02/11 00:38:10;;;;;;;;;;;8.00;99.90;;;;;;5012096;28;19916;-93
2022/02/11 00:46:29;;;;;;;;;;;8.00;99.90;;;;;;5012685;28;19917;-95
2022/02/11 01:02:45;;;;;;;;;;;8.00;99.90;;;;;;5012539;28;19964;-94
2022/02/11 01:05:11;;;;;;;;;;;8.00;99.90;;;;;;4994509;28;20003;-94
2022/02/11 01:07:36;;;;;;;;;;;8.00;99.90;;;;;;4993882;28;20572;-92
2022/02/11 01:10:02;;;;;;;;;;;8.00;99.90;;;;;;4994296;28;19909;-94
2022/02/11 01:12:29;;;;;;;;;;;7.90;99.90;;;;;;5009589;28;19910;-92
2022/02/11 01:14:55;;;;;;;;;;;7.90;99.90;;;;;;5005192;28;19924;-94
2022/02/11 01:20:01;;;;;;;;;;;7.70;99.90;;;;;;5011483;28;19975;-93
2022/02/11 01:22:47;;;;;;;;;;;7.70;99.90;;;;;;5009672;28;20373;-92
2022/02/11 01:30:57;;;;;;;;;;;7.50;99.90;;;;;;5011654;28;20237;-92
2022/02/11 01:36:17;;;;;;;;;;;7.50;99.90;;;;;;5011285;28;19925;-92
2022/02/11 01:44:43;;;;;;;;;;;7.30;99.90;;;;;;5011768;28;19924;-92
2022/02/11 01:50:24;;;;;;;;;;;7.30;99.90;;;;;;4931309;29;19911;-93
2022/02/11 01:58:54;;;;;;;;;;;7.30;99.90;;;;;;5006617;28;20389;-92
2022/02/11 02:10:00;;;;;;;;;;;7.00;99.90;;;;;;5021494;28;20368;-91
2022/02/11 02:29:12;;;;;;;;;;;6.60;99.90;;;;;;5022804;28;19940;-91
2022/02/11 02:37:13;;;;;;;;;;;6.40;99.90;;;;;;5018652;28;20448;-91
2022/02/11 02:50:49;;;;;;;;;;;6.10;99.90;;;;;;5018519;28;19917;-92
2022/02/11 02:58:47;;;;;;;;;;;6.00;99.90;;;;;;5018515;28;19921;-92
2022/02/11 03:15:17;;;;;;;;;;;5.90;99.90;;;;;;5010585;28;20408;-93
2022/02/11 04:59:50;;;;;;;;;;;4.80;99.90;;;;;;5012649;28;20398;-92
2022/02/11 05:02:25;;;;;;;;;;;4.80;99.90;;;;;;5009977;28;19913;-94
2022/02/11 05:04:51;;;;;;;;;;;4.80;99.90;;;;;;5010532;28;20373;-93
2022/02/11 05:07:17;;;;;;;;;;;4.80;99.90;;;;;;5010808;28;19910;-94
2022/02/11 05:09:42;;;;;;;;;;;4.80;99.90;;;;;;5010638;28;19916;-94
2022/02/11 05:12:08;;;;;;;;;;;4.80;99.90;;;;;;5009945;28;20377;-93
2022/02/11 05:14:34;;;;;;;;;;;4.80;99.90;;;;;;5012493;28;19910;-91
2022/02/11 05:17:00;;;;;;;;;;;4.80;99.90;;;;;;5001686;28;20389;-92
2022/02/11 05:19:26;;;;;;;;;;;4.80;99.90;;;;;;4994552;28;19925;-93
2022/02/11 05:21:52;;;;;;;;;;;4.70;99.90;;;;;;5012116;28;19916;-93
2022/02/11 05:24:18;;;;;;;;;;;4.70;99.90;;;;;;4994388;28;19910;-92
2022/02/11 05:26:43;;;;;;;;;;;4.70;99.90;;;;;;4994439;28;19910;-92
2022/02/11 05:29:09;;;;;;;;;;;4.70;99.90;;;;;;4994496;28;19910;-93
2022/02/11 05:31:34;;;;;;;;;;;4.70;99.90;;;;;;5001557;28;19933;-92
2022/02/11 05:34:00;;;;;;;;;;;4.60;99.90;;;;;;4996682;28;19921;-92
2022/02/11 05:36:26;;;;;;;;;;;4.60;99.90;;;;;;4994015;28;19924;-94
2022/02/11 05:38:51;;;;;;;;;;;4.50;99.90;;;;;;4995189;28;19917;-94
2022/02/11 05:41:19;;;;;;;;;;;4.50;99.90;;;;;;4999950;28;20153;-93
2022/02/11 05:43:45;;;;;;;;;;;4.40;99.90;;;;;;4993179;28;19914;-93
2022/02/11 05:46:10;;;;;;;;;;;4.40;99.90;;;;;;5004564;28;20393;-91
2022/02/11 05:48:39;;;;;;;;;;;4.40;99.90;;;;;;4994243;28;19977;-92
2022/02/11 05:51:06;;;;;;;;;;;4.40;99.90;;;;;;5003178;28;19913;-93
2022/02/11 05:53:32;;;;;;;;;;;4.30;99.90;;;;;;4996646;28;19917;-92
2022/02/11 05:55:57;;;;;;;;;;;4.40;99.90;;;;;;5005080;28;19921;-93
2022/02/11 05:58:23;;;;;;;;;;;4.30;99.90;;;;;;5013595;28;19912;-92
2022/02/11 06:00:48;;;;;;;;;;;4.40;99.90;;;;;;5016755;28;19906;-92
2022/02/11 06:03:14;;;;;;;;;;;4.30;99.90;;;;;;4998191;28;19910;-93
2022/02/11 06:05:39;;;;;;;;;;;4.30;99.90;;;;;;4991570;28;20065;-93
2022/02/11 06:08:05;;;;;;;;;;;4.20;99.90;;;;;;4990662;28;19914;-93
2022/02/11 06:10:30;;;;;;;;;;;4.30;99.90;;;;;;4992067;28;19909;-94
2022/02/11 06:12:56;;;;;;;;;;;4.30;99.90;;;;;;4988919;28;20194;-93
2022/02/11 06:15:23;;;;;;;;;;;4.30;99.90;;;;;;4991744;28;19925;-91
2022/02/11 06:17:48;;;;;;;;;;;4.30;99.90;;;;;;5004868;28;19937;-93
2022/02/11 06:20:14;;;;;;;;;;;4.30;99.90;;;;;;5015090;28;19924;-94
2022/02/11 06:22:43;;;;;;;;;;;4.40;99.90;;;;;;5022753;28;19916;-93
2022/02/11 06:25:09;;;;;;;;;;;4.30;99.90;;;;;;5020319;28;19941;-92
2022/02/11 06:27:34;;;;;;;;;;;4.30;99.90;;;;;;5006730;28;19967;-92
2022/02/11 06:30:00;;;;;;;;;;;4.30;99.90;;;;;;5019376;28;19905;-93
2022/02/11 06:32:26;;;;;;;;;;;4.10;99.90;;;;;;5019793;28;20186;-94
2022/02/11 06:34:55;;;;;;;;;;;4.10;99.90;;;;;;5019700;28;19920;-93
2022/02/11 06:37:21;;;;;;;;;;;4.10;99.90;;;;;;5019301;28;19906;-93
2022/02/11 06:39:47;;;;;;;;;;;4.00;99.90;;;;;;5019580;28;19944;-92
2022/02/11 06:42:12;;;;;;;;;;;4.00;99.90;;;;;;5013600;28;19906;-93
2022/02/11 06:44:38;;;;;;;;;;;4.00;99.90;;;;;;5016808;28;20160;-94
2022/02/11 06:47:03;;;;;;;;;;;3.90;99.90;;;;;;5020218;28;19913;-93
2022/02/11 06:49:29;;;;;;;;;;;3.90;99.90;;;;;;5010810;28;19913;-83
2022/02/11 06:51:55;;;;;;;;;;;3.90;99.90;;;;;;4992124;28;19986;-83
2022/02/11 06:54:21;;;;;;;;;;;3.80;99.90;;;;;;5002980;28;19910;-82
2022/02/11 06:56:47;;;;;;;;;;;3.80;99.90;;;;;;5009062;28;19928;-83
2022/02/11 06:59:12;;;;;;;;;;;3.80;99.90;;;;;;5010482;28;19917;-84
2022/02/11 07:01:38;;;;;;;;;;;3.90;99.90;;;;;;5010067;28;19909;-84
2022/02/11 07:04:03;;;;;;;;;;;3.80;99.90;;;;;;5004295;28;19913;-83
2022/02/11 07:06:29;;;;;;;;;;;3.80;99.90;;;;;;5012738;28;19910;-84
2022/02/11 07:08:55;;;;;;;;;;;3.90;99.90;;;;;;5013046;28;19910;-84
2022/02/11 07:11:21;;;;;;;;;;;3.80;99.90;;;;;;5006451;28;19909;-84
2022/02/11 07:13:46;;;;;;;;;;;3.80;99.90;;;;;;5012881;28;19916;-84
2022/02/11 07:16:15;;;;;;;;;;;3.70;99.90;;;;;;5012951;28;19925;-84
2022/02/11 07:18:41;;;;;;;;;;;3.70;99.90;;;;;;5013150;28;19931;-84
2022/02/11 07:21:07;;;;;;;;;;;3.70;99.90;;;;;;4995425;28;20297;-83
2022/02/11 07:23:32;;;;;;;;;;;3.70;99.90;;;;;;5012352;28;19910;-79
2022/02/11 07:25:58;;;;;;;;;;;3.70;99.90;;;;;;5012554;28;19909;-85
2022/02/11 07:28:24;;;;;;;;;;;3.70;99.90;;;;;;5013339;28;20096;-84
2022/02/11 07:30:51;;;;;;;;;;;3.80;99.90;;;;;;5013012;28;19921;-84
2022/02/11 07:33:17;;;;;;;;;;;3.80;99.90;;;;;;5012897;28;20000;-85
2022/02/11 07:35:44;;;;;;;;;;;3.90;99.90;;;;;;5012332;28;19961;-84
2022/02/11 07:38:10;;;;;;;;;;;4.00;99.90;;;;;;4995409;28;19916;-84
2022/02/11 07:40:39;;;;;;;;;;;3.90;99.90;;;;;;5013173;28;20282;-84
2022/02/11 07:43:04;;;;;;;;;;;3.90;99.90;;;;;;5012354;28;19909;-84
2022/02/11 07:45:30;;;;;;;;;;;3.90;99.90;;;;;;4994957;28;19963;-84
2022/02/11 07:47:56;;;;;;;;;;;3.90;99.90;;;;;;4995277;28;20298;-83
2022/02/11 07:50:22;;;;;;;;;;;3.90;99.90;;;;;;4994707;28;19964;-84
2022/02/11 07:52:48;;;;;;;;;;;4.00;99.90;;;;;;5011895;28;19954;-85
2022/02/11 07:55:14;;;;;;;;;;;3.90;99.90;;;;;;5009876;28;20445;-85
2022/02/11 07:57:39;;;;;;;;;;;4.00;99.90;;;;;;5012329;28;19909;-85
2022/02/11 08:00:06;;;;;;;;;;;3.90;99.90;;;;;;5012019;28;20366;-85
2022/02/11 08:02:32;;;;;;;;;;;4.00;99.90;;;;;;5011670;28;19963;-85
2022/02/11 08:04:57;;;;;;;;;;;4.00;99.90;;;;;;5010414;28;20453;-85
2022/02/11 08:07:23;;;;;;;;;;;4.10;99.90;;;;;;5011923;28;19918;-85
2022/02/11 08:09:48;;;;;;;;;;;4.10;99.90;;;;;;5012016;28;19944;-86
2022/02/11 08:12:15;;;;;;;;;;;4.10;99.90;;;;;;5011794;28;19972;-85
2022/02/11 08:14:40;;;;;;;;;;;4.10;99.90;;;;;;5010179;28;20430;-85
2022/02/11 08:17:06;;;;;;;;;;;4.20;99.90;;;;;;5011465;28;19996;-85
2022/02/11 08:19:31;;;;;;;;;;;4.30;99.90;;;;;;5011577;28;19935;-84
2022/02/11 08:21:57;;;;;;;;;;;4.40;99.90;;;;;;5011750;28;20000;-85
2022/02/11 08:24:22;;;;;;;;;;;4.50;99.90;;;;;;5011544;28;19948;-84
2022/02/11 08:26:48;;;;;;;;;;;4.60;99.90;;;;;;5011561;28;19917;-84
2022/02/11 08:29:14;;;;;;;;;;;4.70;99.90;;;;;;5011986;28;19909;-84
2022/02/11 08:31:42;;;;;;;;;;;4.80;99.90;;;;;;5011656;28;19910;-84
2022/02/11 08:34:07;;;;;;;;;;;4.80;99.90;;;;;;5011464;28;19910;-85
2022/02/11 08:36:33;;;;;;;;;;;4.90;99.90;;;;;;5011245;28;19926;-85
2022/02/11 08:38:58;;;;;;;;;;;5.00;99.90;;;;;;4993713;28;20295;-85
2022/02/11 08:41:24;;;;;;;;;;;5.00;99.90;;;;;;5011118;28;20293;-84
2022/02/11 08:43:49;;;;;;;;;;;5.10;99.90;;;;;;5011227;28;19910;-82
2022/02/11 08:46:15;;;;;;;;;;;5.00;99.90;;;;;;5011762;28;20286;-82
2022/02/11 08:48:41;;;;;;;;;;;5.10;99.90;;;;;;5011253;28;20444;-82
2022/02/11 08:51:07;;;;;;;;;;;5.10;99.90;;;;;;5011165;28;19913;-83
2022/02/11 08:53:36;;;;;;;;;;;5.10;99.90;;;;;;5010710;28;19925;-82
2022/02/11 08:56:06;;;;;;;;;;;5.20;99.90;;;;;;5010587;28;20004;-82
2022/02/11 08:58:31;;;;;;;;;;;5.30;99.90;;;;;;5010999;28;19910;-85
2022/02/11 09:00:57;;;;;;;;;;;5.50;99.90;;;;;;5010635;28;20004;-85
2022/02/11 09:03:23;;;;;;;;;;;5.40;99.90;;;;;;4993022;28;20206;-85
2022/02/11 09:05:48;;;;;;;;;;;5.50;99.90;;;;;;5010634;28;20445;-83
2022/02/11 09:08:14;;;;;;;;;;;5.50;99.90;;;;;;5010987;28;19917;-85
2022/02/11 09:10:39;;;;;;;;;;;5.60;99.90;;;;;;5010949;28;19915;-83
2022/02/11 09:13:05;;;;;;;;;;;5.60;99.90;;;;;;5010547;28;19910;-82
2022/02/11 09:15:31;;;;;;;;;;;5.70;99.90;;;;;;4992604;28;19952;-85
2022/02/11 09:17:56;;;;;;;;;;;5.90;99.90;;;;;;5004267;28;19910;-82
2022/02/11 09:20:23;;;;;;;;;;;5.90;99.90;;;;;;5007518;28;19944;-82
2022/02/11 09:22:49;;;;;;;;;;;6.00;99.90;;;;;;5010647;28;19940;-82
2022/02/11 09:25:15;;;;;;;;;;;6.00;99.90;;;;;;5010312;28;19921;-83
2022/02/11 09:27:43;;;;;;;;;;;6.10;99.90;;;;;;5009900;28;19913;-82
2022/02/11 09:30:09;;;;;;;;;;;6.20;99.90;;;;;;5010590;28;20393;-81
2022/02/11 09:32:35;;;;;;;;;;;6.20;99.90;;;;;;5010018;28;19936;-83
2022/02/11 09:35:01;;;;;;;;;;;6.30;99.90;;;;;;5008045;28;20374;-83
2022/02/11 09:37:27;;;;;;;;;;;6.30;99.90;;;;;;5008291;28;19916;-83
2022/02/11 09:39:52;;;;;;;;;;;6.40;99.90;;;;;;5010347;28;19909;-83
2022/02/11 09:42:19;;;;;;;;;;;6.50;99.90;;;;;;5010186;28;19916;-83
2022/02/11 09:44:46;;;;;;;;;;;6.50;99.90;;;;;;5010471;28;19916;-83
2022/02/11 09:47:12;;;;;;;;;;;6.60;99.90;;;;;;5010024;28;20388;-82
2022/02/11 09:49:38;;;;;;;;;;;6.70;99.90;;;;;;5010271;28;20008;-83
2022/02/11 09:52:05;;;;;;;;;;;6.80;99.90;;;;;;5007913;28;19929;-83
2022/02/11 09:54:32;;;;;;;;;;;6.80;99.90;;;;;;5010145;28;19996;-82
2022/02/11 09:56:58;;;;;;;;;;;6.90;99.90;;;;;;5010163;28;19918;-83
2022/02/11 09:59:24;;;;;;;;;;;6.90;99.90;;;;;;5010463;28;19972;-83
2022/02/11 10:01:50;;;;;;;;;;;6.90;99.90;;;;;;5010010;28;19909;-83
2022/02/11 10:04:15;;;;;;;;;;;7.00;99.90;;;;;;5010022;28;19992;-83
2022/02/11 10:06:42;;;;;;;;;;;7.10;99.90;;;;;;5010271;28;20419;-83
2022/02/11 10:09:08;;;;;;;;;;;7.20;99.90;;;;;;5009925;28;19921;-83
2022/02/11 10:11:34;;;;;;;;;;;7.30;99.90;;;;;;5009872;28;19909;-82
2022/02/11 10:14:18;;;;;;;;;;;7.40;99.90;;;;;;5009694;28;20424;-84
2022/02/11 10:16:54;;;;;;;;;;;7.50;99.90;;;;;;5010015;28;20004;-83
2022/02/11 10:19:38;;;;;;;;;;;7.60;99.90;;;;;;4992453;28;20447;-83
2022/02/11 10:22:07;;;;;;;;;;;7.70;99.90;;;;;;4992489;28;19925;-83
2022/02/11 10:24:33;;;;;;;;;;;7.80;99.90;;;;;;5009710;28;20279;-83
2022/02/11 10:26:59;;;;;;;;;;;7.90;99.90;;;;;;5003350;28;20382;-83
2022/02/11 10:29:24;;;;;;;;;;;8.00;99.90;;;;;;4991949;28;19963;-83
2022/02/11 10:31:50;;;;;;;;;;;8.00;99.90;;;;;;5009657;28;19914;-83
2022/02/11 10:34:18;;;;;;;;;;;8.10;99.90;;;;;;4992158;28;20437;-83
2022/02/11 10:36:48;;;;;;;;;;;8.20;99.90;;;;;;5009849;28;20329;-83
2022/02/11 10:39:23;;;;;;;;;;;8.30;99.90;;;;;;4992443;28;19916;-83
2022/02/11 10:41:50;;;;;;;;;;;8.40;99.90;;;;;;4989775;28;19909;-83
2022/02/11 10:44:16;;;;;;;;;;;8.50;99.90;;;;;;5007495;28;19910;-83
2022/02/11 10:46:52;;;;;;;;;;;8.60;99.90;;;;;;5007490;28;19975;-84
2022/02/11 10:49:28;;;;;;;;;;;8.70;99.90;;;;;;5008103;28;19909;-83
2022/02/11 10:51:54;;;;;;;;;;;8.80;99.90;;;;;;4996007;28;19967;-83
2022/02/11 10:54:25;;;;;;;;;;;8.90;99.90;;;;;;5013461;28;19917;-83
2022/02/11 10:56:51;;;;;;;;;;;9.00;99.90;;;;;;5009915;28;19918;-83
2022/02/11 10:59:27;;;;;;;;;;;9.00;99.90;;;;;;5015516;28;19910;-84
2022/02/11 11:01:53;;;;;;;;;;;9.00;99.90;;;;;;5017883;28;19980;-85
2022/02/11 11:04:19;;;;;;;;;;;9.10;99.90;;;;;;5018655;28;19979;-84
2022/02/11 11:06:46;;;;;;;;;;;9.20;99.90;;;;;;5013422;28;19910;-84
2022/02/11 11:09:12;;;;;;;;;;;9.20;99.90;;;;;;5013685;28;19948;-84
2022/02/11 11:11:38;;;;;;;;;;;9.20;99.90;;;;;;5015623;28;19910;-84
2022/02/11 11:14:04;;;;;;;;;;;9.30;99.90;;;;;;5013601;28;19916;-84
2022/02/11 11:16:32;;;;;;;;;;;9.30;99.90;;;;;;5013601;28;19940;-84
2022/02/11 11:18:58;;;;;;;;;;;9.50;99.90;;;;;;5012960;28;19910;-84
2022/02/11 11:21:24;;;;;;;;;;;9.50;99.90;;;;;;5016184;28;19921;-84
2022/02/11 11:23:57;;;;;;;;;;;9.60;99.90;;;;;;5014053;28;19910;-84
2022/02/11 11:26:42;;;;;;;;;;;9.60;99.90;;;;;;5018707;28;19972;-84
2022/02/11 11:29:18;;;;;;;;;;;9.70;99.90;;;;;;5021036;28;19973;-84
2022/02/11 11:31:57;;;;;;;;;;;9.80;99.90;;;;;;5017658;28;19995;-84
2022/02/11 11:34:24;;;;;;;;;;;9.80;99.90;;;;;;5018128;28;20101;-84
2022/02/11 11:36:54;;;;;;;;;;;9.90;99.90;;;;;;5016201;28;20065;-85
2022/02/11 11:39:20;;;;;;;;;;;10.00;99.90;;;;;;5001925;28;20294;-85
2022/02/11 11:42:09;;;;;;;;;;;10.00;99.90;;;;;;5013227;28;19916;-85
2022/02/11 11:44:44;;;;;;;;;;;10.00;99.90;;;;;;4994929;28;19968;-85
2022/02/11 11:47:23;;;;;;;;;;;10.00;99.90;;;;;;5014981;28;19913;-85
2022/02/11 11:49:51;;;;;;;;;;;10.10;99.90;;;;;;4996988;28;19909;-84
2022/02/11 11:52:17;;;;;;;;;;;10.20;99.90;;;;;;5020564;28;19944;-78
2022/02/11 11:54:43;;;;;;;;;;;10.20;99.90;;;;;;5022836;28;19905;-79
2022/02/11 11:57:12;;;;;;;;;;;10.20;99.90;;;;;;5022202;28;19914;-79
2022/02/11 11:59:51;;;;;;;;;;;10.30;99.90;;;;;;5022739;28;19912;-79
2022/02/11 12:02:19;;;;;;;;;;;10.40;99.90;;;;;;5022807;28;19905;-84
2022/02/11 12:04:44;;;;;;;;;;;10.40;99.90;;;;;;5013851;28;20270;-83
2022/02/11 12:07:39;;;;;;;;;;;10.50;99.90;;;;;;5012614;28;19996;-83
2022/02/11 12:10:05;;;;;;;;;;;10.50;99.90;;;;;;4989841;28;19955;-84
2022/02/11 12:12:32;;;;;;;;;;;10.50;99.90;;;;;;5016359;28;19992;-84
2022/02/11 12:15:02;;;;;;;;;;;10.60;99.90;;;;;;4997315;28;19928;-79
2022/02/11 12:17:28;;;;;;;;;;;10.70;99.90;;;;;;5022185;28;20029;-79
2022/02/11 12:19:54;;;;;;;;;;;10.80;99.90;;;;;;5022098;28;19929;-79
2022/02/11 12:22:22;;;;;;;;;;;10.90;99.90;;;;;;5022463;28;20309;-79
2022/02/11 12:27:35;;;;;;;;;;;11.00;99.90;;;;;;5022698;28;19985;-79
2022/02/11 12:30:11;;;;;;;;;;;11.10;99.90;;;;;;5022422;28;19980;-79
2022/02/11 12:32:40;;;;;;;;;;;11.10;99.90;;;;;;5016764;28;19910;-84
2022/02/11 12:35:07;;;;;;;;;;;11.10;99.90;;;;;;5010468;28;19980;-84
2022/02/11 12:37:33;;;;;;;;;;;11.00;99.90;;;;;;5015203;28;19917;-84
2022/02/11 12:40:01;;;;;;;;;;;11.10;99.90;;;;;;5011536;28;20295;-84
2022/02/11 12:42:27;;;;;;;;;;;11.20;99.90;;;;;;5012370;28;19913;-85
2022/02/11 12:44:53;;;;;;;;;;;11.10;99.90;;;;;;5012083;28;19996;-84
2022/02/11 12:47:19;;;;;;;;;;;11.20;99.90;;;;;;5020531;28;19906;-79
2022/02/11 12:49:49;;;;;;;;;;;11.10;99.90;;;;;;5022383;28;19909;-79
2022/02/11 12:52:17;;;;;;;;;;;11.10;99.90;;;;;;5021985;28;19906;-79
2022/02/11 12:54:59;;;;;;;;;;;11.30;99.90;;;;;;5019729;28;19928;-80
2022/02/11 12:57:26;;;;;;;;;;;11.40;99.90;;;;;;5022549;28;19956;-79
2022/02/11 12:59:53;;;;;;;;;;;11.40;99.90;;;;;;5015130;28;20919;-79
2022/02/11 13:02:37;;;;;;;;;;;11.40;99.90;;;;;;5021668;28;19980;-80
2022/02/11 13:05:05;;;;;;;;;;;11.30;99.90;;;;;;5022143;28;19906;-79
2022/02/11 13:07:30;;;;;;;;;;;11.30;99.90;;;;;;5022253;28;19913;-79
2022/02/11 13:09:56;;;;;;;;;;;11.20;99.90;;;;;;5022001;28;20220;-83
2022/02/11 13:12:22;;;;;;;;;;;11.20;99.90;;;;;;5011200;28;19923;-86
2022/02/11 13:14:47;;;;;;;;;;;11.20;99.90;;;;;;5010451;28;19952;-84
2022/02/11 13:17:13;;;;;;;;;;;11.30;99.90;;;;;;5010724;28;19920;-84
2022/02/11 13:19:38;;;;;;;;;;;11.40;99.90;;;;;;5015835;28;19957;-84
2022/02/11 13:22:04;;;;;;;;;;;11.50;99.90;;;;;;4998504;28;19925;-84
2022/02/11 13:24:31;;;;;;;;;;;11.60;99.90;;;;;;4993062;28;19913;-84
2022/02/11 13:26:59;;;;;;;;;;;11.60;99.90;;;;;;5011662;28;19917;-81
2022/02/11 13:29:25;;;;;;;;;;;11.50;99.90;;;;;;5009853;28;19928;-76
2022/02/11 13:31:53;;;;;;;;;;;11.50;99.90;;;;;;5010535;28;19913;-77
2022/02/11 13:34:19;;;;;;;;;;;11.60;99.90;;;;;;5010124;28;19921;-76
2022/02/11 13:36:50;;;;;;;;;;;11.70;99.90;;;;;;5010746;28;19968;-76
2022/02/11 13:39:28;;;;;;;;;;;11.60;99.90;;;;;;5010185;28;19986;-76
2022/02/11 13:41:54;;;;;;;;;;;11.70;99.90;;;;;;5010261;28;19910;-76
2022/02/11 13:44:21;;;;;;;;;;;11.60;99.90;;;;;;4992296;28;19972;-76
2022/02/11 13:46:51;;;;;;;;;;;11.60;99.90;;;;;;5010204;28;20206;-76
2022/02/11 13:49:17;;;;;;;;;;;11.70;99.90;;;;;;5003898;28;19917;-76
2022/02/11 13:51:43;;;;;;;;;;;11.50;99.90;;;;;;5010298;28;19906;-77
2022/02/11 13:54:16;;;;;;;;;;;11.50;99.90;;;;;;5003479;28;20157;-76
2022/02/11 13:56:42;;;;;;;;;;;11.60;99.90;;;;;;5009958;28;19923;-77
2022/02/11 13:59:09;;;;;;;;;;;11.80;99.90;;;;;;5009909;28;19909;-77
2022/02/11 14:01:47;;;;;;;;;;;11.90;99.90;;;;;;5008816;28;19996;-77
2022/02/11 14:04:20;;;;;;;;;;;12.00;99.90;;;;;;5015658;28;20228;-76
2022/02/11 14:06:55;;;;;;;;;;;12.00;99.90;;;;;;5014014;28;20151;-77
2022/02/11 14:09:26;;;;;;;;;;;12.00;99.90;;;;;;5009601;28;19909;-76
2022/02/11 14:11:52;;;;;;;;;;;12.00;99.90;;;;;;5011014;28;19976;-77
2022/02/11 14:14:18;;;;;;;;;;;12.00;99.90;;;;;;5011208;28;19913;-77
2022/02/11 14:16:45;;;;;;;;;;;12.00;99.90;;;;;;5014518;28;20029;-76
2022/02/11 14:19:11;;;;;;;;;;;11.80;99.90;;;;;;5013071;28;19913;-77
2022/02/11 14:21:38;;;;;;;;;;;11.70;99.90;;;;;;5014557;28;19925;-84
2022/02/11 14:24:05;;;;;;;;;;;11.70;99.90;;;;;;4999381;28;19957;-83
2022/02/11 14:26:31;;;;;;;;;;;11.80;99.90;;;;;;5015332;28;19909;-83
2022/02/11 14:28:56;;;;;;;;;;;11.70;99.90;;;;;;5016464;28;19910;-83
2022/02/11 14:31:22;;;;;;;;;;;11.70;99.90;;;;;;5016868;28;19909;-83
2022/02/11 14:33:47;;;;;;;;;;;11.80;99.90;;;;;;5026940;28;19909;-84
2022/02/11 14:36:13;;;;;;;;;;;11.90;99.90;;;;;;5028524;28;20017;-84
2022/02/11 14:38:39;;;;;;;;;;;12.20;99.90;;;;;;5021179;28;19914;-84
2022/02/11 14:43:49;;;;;;;;;;;12.20;99.90;;;;;;5016148;28;19920;-79
2022/02/11 14:46:14;;;;;;;;;;;12.00;99.90;;;;;;5016043;28;20293;-78
2022/02/11 14:48:40;;;;;;;;;;;11.90;99.90;;;;;;5014779;28;19917;-80
2022/02/11 14:51:06;;;;;;;;;;;11.90;99.90;;;;;;5031182;28;19941;-84
2022/02/11 14:53:32;;;;;;;;;;;11.90;99.90;;;;;;5032960;28;19917;-82
2022/02/11 14:55:57;;;;;;;;;;;11.90;99.90;;;;;;5025265;28;19937;-85
2022/02/11 14:58:23;;;;;;;;;;;11.90;99.90;;;;;;5027908;28;19917;-83
2022/02/11 15:00:49;;;;;;;;;;;11.90;99.90;;;;;;5021956;28;19918;-83
2022/02/11 15:03:14;;;;;;;;;;;12.00;99.90;;;;;;5026810;28;19910;-84
2022/02/11 15:05:40;;;;;;;;;;;12.00;99.90;;;;;;5027096;28;19909;-83
2022/02/11 15:08:05;;;;;;;;;;;12.00;99.90;;;;;;5030971;28;19933;-84
2022/02/11 15:10:31;;;;;;;;;;;12.00;99.90;;;;;;5027881;28;19909;-85
2022/02/11 15:12:56;;;;;;;;;;;12.00;99.90;;;;;;5020683;28;19910;-84
2022/02/11 15:15:22;;;;;;;;;;;11.90;99.90;;;;;;5020669;28;20007;-83
2022/02/11 15:17:48;;;;;;;;;;;12.00;99.90;;;;;;5019511;28;19934;-83
2022/02/11 15:20:13;;;;;;;;;;;12.00;99.60;;;;;;5015331;28;19921;-83
2022/02/11 15:22:39;;;;;;;;;;;11.80;99.70;;;;;;5014558;28;19909;-83
2022/02/11 15:25:05;;;;;;;;;;;11.70;99.90;;;;;;5013994;28;20299;-83
2022/02/11 15:27:30;;;;;;;;;;;11.60;99.90;;;;;;5013824;28;19913;-85
2022/02/11 15:29:58;;;;;;;;;;;11.60;99.90;;;;;;5014387;28;19956;-83
2022/02/11 15:32:23;;;;;;;;;;;11.60;99.90;;;;;;5014143;28;19935;-83
2022/02/11 15:34:49;;;;;;;;;;;11.50;99.90;;;;;;5012333;28;19996;-86
2022/02/11 15:37:16;;;;;;;;;;;11.70;99.90;;;;;;5014238;28;20012;-83
2022/02/11 15:39:42;;;;;;;;;;;11.80;99.90;;;;;;5013075;28;20386;-83
2022/02/11 15:42:07;;;;;;;;;;;11.90;99.90;;;;;;4996082;28;19913;-84
2022/02/11 15:44:33;;;;;;;;;;;11.90;99.90;;;;;;5013295;28;19914;-84
2022/02/11 15:46:59;;;;;;;;;;;11.80;99.90;;;;;;5013973;28;20016;-84
2022/02/11 15:49:24;;;;;;;;;;;11.70;99.90;;;;;;5014413;28;19910;-95
2022/02/11 15:51:50;;;;;;;;;;;11.80;99.90;;;;;;5014936;28;19910;-84
2022/02/11 15:54:15;;;;;;;;;;;11.70;99.90;;;;;;5013803;28;19909;-95
2022/02/11 15:56:41;;;;;;;;;;;11.70;99.90;;;;;;5013846;28;19924;-96
2022/02/11 15:59:06;;;;;;;;;;;11.60;99.90;;;;;;4997180;28;19917;-95
2022/02/11 16:01:32;;;;;;;;;;;11.60;99.90;;;;;;5006964;28;19917;-85
2022/02/11 16:04:01;;;;;;;;;;;11.60;99.90;;;;;;5013693;28;20402;-84
2022/02/11 16:06:26;;;;;;;;;;;11.50;99.90;;;;;;5014242;28;19945;-85
2022/02/11 16:08:52;;;;;;;;;;;11.40;99.90;;;;;;5011460;28;19913;-85
2022/02/11 16:11:17;;;;;;;;;;;11.40;99.90;;;;;;5013690;28;19916;-84
2022/02/11 16:13:43;;;;;;;;;;;11.40;99.90;;;;;;5013730;28;20338;-84
2022/02/11 16:16:08;;;;;;;;;;;11.30;99.90;;;;;;5013726;28;19948;-84
2022/02/11 16:18:34;;;;;;;;;;;11.20;99.90;;;;;;5013837;28;19960;-85
2022/02/11 16:21:00;;;;;;;;;;;11.40;99.90;;;;;;5014549;28;19922;-83
2022/02/11 16:23:27;;;;;;;;;;;11.50;99.90;;;;;;5012360;28;20361;-83
2022/02/11 16:25:54;;;;;;;;;;;11.70;99.90;;;;;;5012115;28;20405;-83
2022/02/11 16:28:20;;;;;;;;;;;12.30;99.90;;;;;;5012534;28;19910;-83
2022/02/11 16:30:47;;;;;;;;;;;13.20;99.80;;;;;;5012636;28;19913;-84
2022/02/11 16:33:13;;;;;;;;;;;14.60;98.10;;;;;;5012097;28;19917;-85
2022/02/11 16:35:40;;;;;;;;;;;16.00;95.60;;;;;;5012313;28;19929;-85
2022/02/11 16:38:06;;;;;;;;;;;17.20;93.60;;;;;;4995771;28;19937;-92
2022/02/11 16:40:32;;;;;;;;;;;17.70;91.10;;;;;;5004685;28;19992;-92
2022/02/11 16:42:57;;;;;;;;;;;18.00;90.80;;;;;;5015571;28;19955;-94
2022/02/11 16:45:23;;;;;;;;;;;17.40;90.20;;;;;;5014925;28;19914;-93
2022/02/11 16:47:49;;;;;;;;;;;15.90;91.70;;;;;;4996239;28;19910;-92
2022/02/11 16:50:15;;;;;;;;;;;14.60;94.40;;;;;;5018353;28;20337;-94
2022/02/11 16:52:40;;;;;;;;;;;13.60;95.40;;;;;;5008740;28;19901;-93
2022/02/11 16:55:08;;;;;;;;;;;12.70;98.10;;;;;;5022021;28;19913;-92
2022/02/11 16:57:43;;;;;;;;;;;;;;;;;;;;;
2022/02/11 17:00:13;;;;;;;;;;;11.40;99.90;;;;;;5000702;28;19924;-96
2022/02/11 17:02:39;;;;;;;;;;;10.90;99.90;;;;;;5001974;28;19913;-95
2022/02/11 17:05:10;;;;;;;;;;;10.50;99.90;;;;;;4996437;28;20341;-95
2022/02/11 17:07:35;;;;;;;;;;;10.20;99.90;;;;;;4997390;28;19917;-94
2022/02/11 17:10:04;;;;;;;;;;;9.90;99.90;;;;;;5001438;28;19909;-95
2022/02/11 17:12:31;;;;;;;;;;;9.60;99.90;;;;;;5006663;28;19909;-87
2022/02/11 17:14:57;;;;;;;;;;;9.50;99.90;;;;;;4996194;28;19916;-93
2022/02/11 17:17:23;;;;;;;;;;;9.30;99.90;;;;;;5014740;28;19921;-92
2022/02/11 17:19:49;;;;;;;;;;;9.20;99.90;;;;;;5017804;28;20421;-96
2022/02/11 17:22:17;;;;;;;;;;;9.10;99.90;;;;;;5018401;28;20090;-93
2022/02/11 17:24:47;;;;;;;;;;;8.90;99.90;;;;;;5016397;28;19976;-96
2022/02/11 17:27:13;;;;;;;;;;;8.80;99.90;;;;;;5021527;28;19906;-92
2022/02/11 17:29:39;;;;;;;;;;;8.70;99.90;;;;;;5019070;28;19968;-92
2022/02/11 17:32:07;;;;;;;;;;;8.60;99.90;;;;;;5015665;28;19917;-95
2022/02/11 17:34:40;;;;;;;;;;;8.50;99.90;;;;;;5018188;28;19955;-92
2022/02/11 17:37:06;;;;;;;;;;;8.50;99.90;;;;;;5017319;28;19913;-93
2022/02/11 17:39:34;;;;;;;;;;;8.40;99.90;;;;;;5012561;28;19905;-92
2022/02/11 17:42:00;;;;;;;;;;;8.40;99.90;;;;;;5020388;28;19906;-93
2022/02/11 17:44:26;;;;;;;;;;;8.20;99.90;;;;;;5021231;28;19909;-93
2022/02/11 17:46:52;;;;;;;;;;;8.20;99.90;;;;;;5006645;28;19951;-94
2022/02/11 17:49:19;;;;;;;;;;;8.10;99.90;;;;;;5017201;28;20101;-95
2022/02/11 17:51:44;;;;;;;;;;;8.10;99.90;;;;;;5014528;28;19919;-93
2022/02/11 17:54:14;;;;;;;;;;;8.00;99.90;;;;;;5021451;28;19905;-92
2022/02/11 17:56:43;;;;;;;;;;;8.00;99.90;;;;;;5008513;28;19936;-91
2022/02/11 17:59:10;;;;;;;;;;;7.90;99.90;;;;;;5023815;28;19935;-93
2022/02/11 18:01:36;;;;;;;;;;;7.90;99.90;;;;;;5005607;28;20143;-95
2022/02/11 18:04:02;;;;;;;;;;;7.90;99.90;;;;;;5002651;28;19976;-88
2022/02/11 18:06:28;;;;;;;;;;;7.80;99.90;;;;;;5012398;28;20370;-87
2022/02/11 18:08:53;;;;;;;;;;;7.80;99.90;;;;;;5013282;28;19905;-88
2022/02/11 18:11:19;;;;;;;;;;;7.80;99.90;;;;;;4995340;28;19916;-88
2022/02/11 18:13:44;;;;;;;;;;;7.70;99.90;;;;;;4993968;28;19910;-88